Time;durP1;ratioP1;P1;durP2;ratioP2;P2;SDS_P1;SDS_P2;PMS_P1;PMS_P2;Temp;Humidity;BMP_temperature;BMP_pressure;BME280_temperature;BME280_humidity;BME280_pressure;Samples;Min_cycle;Max_cycle;Signal;HPM_P1;HPM_P2
2022/05/09 00:02:15;;;;;;;7.10;2.03;;;;;;;5.83;96.28;91335.31;5020871;28;20026;-64
2022/05/09 00:04:41;;;;;;;4.03;1.90;;;;;;;5.77;96.14;91322.41;5022790;28;20575;-62
2022/05/09 00:07:07;;;;;;;2.03;1.73;;;;;;;5.77;96.49;91330.34;5021768;28;20061;-63
2022/05/09 00:09:32;;;;;;;1.60;1.50;;;;;;;5.80;96.79;91337.72;5031810;28;20060;-62
2022/05/09 00:11:58;;;;;;;2.22;1.60;;;;;;;5.85;96.98;91330.59;5031395;28;20034;-63
2022/05/09 00:14:24;;;;;;;2.13;1.80;;;;;;;5.88;96.21;91321.31;5031390;28;20026;-62
2022/05/09 00:16:53;;;;;;;2.03;1.65;;;;;;;5.66;98.85;91306.59;5031508;28;20543;-62
2022/05/09 00:19:20;;;;;;;1.60;1.50;;;;;;;5.53;100.00;91323.03;5031330;28;20017;-62
2022/05/09 00:21:48;;;;;;;1.77;1.65;;;;;;;5.39;100.00;91319.38;5031328;28;20029;-62
2022/05/09 00:24:15;;;;;;;1.77;1.60;;;;;;;5.26;100.00;91330.47;5031329;28;20083;-63
2022/05/09 00:26:41;;;;;;;1.75;1.65;;;;;;;5.31;100.00;91330.44;5029031;28;20112;-62
2022/05/09 00:29:09;;;;;;;1.50;1.40;;;;;;;5.29;100.00;91325.44;5030952;28;20022;-62
2022/05/09 00:31:35;;;;;;;1.70;1.35;;;;;;;5.43;100.00;91319.63;5031111;28;20037;-62
2022/05/09 00:34:01;;;;;;;1.48;1.38;;;;;;;5.53;100.00;91324.88;5028518;28;20028;-63
2022/05/09 00:36:27;;;;;;;1.48;1.33;;;;;;;5.62;100.00;91324.03;5031143;28;20061;-63
2022/05/09 00:38:53;;;;;;;2.10;1.90;;;;;;;5.61;100.00;91325.09;5020544;28;20436;-63
2022/05/09 00:41:34;;;;;;;4.00;1.88;;;;;;;5.65;100.00;91330.63;5020573;28;20445;-63
2022/05/09 00:44:07;;;;;;;2.03;1.83;;;;;;;5.66;99.78;91313.72;5021804;28;20101;-63
2022/05/09 00:46:33;;;;;;;4.57;1.77;;;;;;;5.86;97.93;91323.44;5021736;28;20405;-63
2022/05/09 00:49:09;;;;;;;2.10;1.95;;;;;;;5.79;97.43;91312.38;5030461;28;20050;-63
2022/05/09 00:51:36;;;;;;;2.08;1.88;;;;;;;5.81;95.14;91311.03;5019772;28;20065;-63
2022/05/09 00:54:03;;;;;;;1.45;1.35;;;;;;;5.85;94.39;91322.66;5030752;28;20026;-62
2022/05/09 00:56:41;;;;;;;1.60;1.50;;;;;;;5.79;94.12;91309.72;5031394;28;20029;-63
2022/05/09 00:59:11;;;;;;;3.38;1.55;;;;;;;5.75;94.02;91311.34;5031994;28;20108;-63
2022/05/09 01:01:39;;;;;;;1.63;1.52;;;;;;;5.66;94.38;91311.88;5031803;28;20036;-63
2022/05/09 01:04:12;;;;;;;2.13;1.70;;;;;;;5.64;94.50;91306.09;5032239;28;20434;-63
2022/05/09 01:06:38;;;;;;;1.65;1.55;;;;;;;5.56;95.19;91309.28;5031812;28;20061;-63
2022/05/09 01:09:05;;;;;;;1.70;1.50;;;;;;;5.49;96.55;91303.50;5032062;28;20460;-63
2022/05/09 01:11:32;;;;;;;2.25;1.27;;;;;;;5.46;98.61;91314.59;5029406;28;20041;-64
2022/05/09 01:14:04;;;;;;;1.58;1.48;;;;;;;5.45;99.23;91301.66;5030423;28;20480;-62
2022/05/09 01:16:31;;;;;;;2.40;1.80;;;;;;;5.33;100.00;91304.59;5030360;28;20031;-62
2022/05/09 01:19:00;;;;;;;1.67;1.58;;;;;;;5.22;100.00;91308.31;5027832;28;20033;-63
2022/05/09 01:21:36;;;;;;;4.53;2.33;;;;;;;5.22;100.00;91295.13;5030414;28;20033;-63
2022/05/09 01:24:04;;;;;;;2.10;1.90;;;;;;;5.20;100.00;91299.84;5028706;28;20044;-62
2022/05/09 01:26:30;;;;;;;1.50;1.40;;;;;;;5.18;100.00;91300.13;5030221;28;21637;-62
2022/05/09 01:29:02;;;;;;;3.30;1.58;;;;;;;5.25;100.00;91310.41;5028045;28;20565;-63
2022/05/09 01:31:28;;;;;;;1.98;1.77;;;;;;;5.24;100.00;91300.94;5031131;28;20036;-62
2022/05/09 01:33:55;;;;;;;2.28;1.42;;;;;;;5.18;100.00;91313.31;5019615;28;20021;-63
2022/05/09 01:36:26;;;;;;;4.55;1.90;;;;;;;5.21;100.00;91306.75;5030361;28;20049;-63
2022/05/09 01:38:59;;;;;;;2.15;1.95;;;;;;;5.28;100.00;91312.53;5029949;28;20484;-62
2022/05/09 01:41:26;;;;;;;1.48;1.38;;;;;;;5.20;100.00;91316.47;5029518;28;20033;-62
2022/05/09 01:43:55;;;;;;;2.40;2.00;;;;;;;5.18;100.00;91297.50;5029800;28;20108;-63
2022/05/09 01:46:29;;;;;;;1.45;1.35;;;;;;;5.23;100.00;91308.06;5030062;28;20080;-62
2022/05/09 01:51:42;;;;;;;1.60;1.50;;;;;;;5.13;100.00;91297.50;5027301;28;20422;-62
2022/05/09 01:54:10;;;;;;;2.03;1.83;;;;;;;5.04;100.00;91310.41;5029795;28;20402;-62
2022/05/09 01:56:38;;;;;;;2.22;1.80;;;;;;;4.94;100.00;91312.28;5029361;28;20035;-62
2022/05/09 01:59:06;;;;;;;1.60;1.50;;;;;;;4.94;100.00;91317.56;5019713;28;20048;-62
2022/05/09 02:01:43;;;;;;;2.13;1.67;;;;;;;4.91;100.00;91310.19;5020947;28;20021;-63
2022/05/09 02:04:11;;;;;;;1.50;1.40;;;;;;;4.81;100.00;91310.97;5020681;28;20100;-62
2022/05/09 02:06:37;;;;;;;1.88;1.73;;;;;;;4.68;100.00;91308.88;5026996;28;20490;-63
2022/05/09 02:09:03;;;;;;;2.55;1.88;;;;;;;4.61;100.00;91303.06;5029535;28;20060;-62
2022/05/09 02:11:28;;;;;;;1.35;1.27;;;;;;;4.62;100.00;91305.44;5018661;28;20068;-62
2022/05/09 02:13:54;;;;;;;3.70;1.70;;;;;;;4.57;100.00;91300.16;5013517;28;20026;-62
2022/05/09 02:16:19;;;;;;;1.63;1.52;;;;;;;4.59;100.00;91305.97;5011422;28;20032;-62
2022/05/09 02:18:45;;;;;;;2.05;1.83;;;;;;;4.56;100.00;91303.06;5011262;28;20093;-62
2022/05/09 02:21:10;;;;;;;2.17;1.75;;;;;;;4.56;100.00;91306.47;5011030;28;20515;-62
2022/05/09 02:23:36;;;;;;;2.60;2.35;;;;;;;4.51;100.00;91317.03;5013790;28;20101;-62
2022/05/09 02:26:02;;;;;;;15.80;2.20;;;;;;;4.50;100.00;91318.88;5014898;28;20116;-62
2022/05/09 02:28:29;;;;;;;2.17;1.60;;;;;;;4.31;100.00;91317.00;5015012;28;20064;-63
2022/05/09 02:30:54;;;;;;;1.58;1.48;;;;;;;4.16;100.00;91320.38;5014890;28;20022;-62
2022/05/09 02:33:20;;;;;;;1.63;1.52;;;;;;;4.06;100.00;91313.25;5014904;28;20041;-62
2022/05/09 02:35:47;;;;;;;2.45;2.00;;;;;;;3.99;100.00;91327.72;5014951;28;20064;-63
2022/05/09 02:38:13;;;;;;;1.80;1.70;;;;;;;3.94;100.00;91315.31;5014924;28;20109;-62
2022/05/09 02:40:38;;;;;;;2.00;1.77;;;;;;;3.93;100.00;91313.72;5014476;28;20113;-63
2022/05/09 02:43:04;;;;;;;1.85;1.50;;;;;;;3.94;100.00;91314.53;5014815;28;20026;-62
2022/05/09 02:45:30;;;;;;;1.80;1.70;;;;;;;3.94;100.00;91322.41;5014853;28;20026;-62
2022/05/09 02:47:56;;;;;;;2.95;2.08;;;;;;;3.83;100.00;91322.41;5014731;28;20038;-63
2022/05/09 02:50:24;;;;;;;1.73;1.63;;;;;;;3.83;100.00;91325.03;5014332;28;20042;-62
2022/05/09 02:52:51;;;;;;;2.40;2.00;;;;;;;3.91;100.00;91331.63;5014667;28;20045;-62
2022/05/09 02:55:17;;;;;;;2.78;2.10;;;;;;;3.87;100.00;91328.72;5013255;28;20033;-62
2022/05/09 02:57:44;;;;;;;1.70;1.60;;;;;;;3.90;100.00;91325.56;5014293;28;20026;-62
2022/05/09 03:00:13;;;;;;;1.98;1.80;;;;;;;4.07;100.00;91335.88;5014451;28;20093;-62
2022/05/09 03:02:39;;;;;;;2.33;1.92;;;;;;;4.08;100.00;91320.88;5014383;28;20076;-62
2022/05/09 03:05:07;;;;;;;1.83;1.60;;;;;;;4.12;100.00;91335.91;5014412;28;20124;-62
2022/05/09 03:07:33;;;;;;;1.60;1.50;;;;;;;4.14;100.00;91325.13;5014366;28;20112;-62
2022/05/09 03:09:59;;;;;;;1.60;1.50;;;;;;;4.33;100.00;91333.31;5014146;28;20034;-62
2022/05/09 03:12:25;;;;;;;2.15;1.80;;;;;;;4.26;100.00;91325.69;5014101;28;20095;-62
2022/05/09 03:14:51;;;;;;;2.10;1.70;;;;;;;4.12;100.00;91330.66;5014279;28;20450;-62
2022/05/09 03:17:17;;;;;;;2.65;2.03;;;;;;;4.10;100.00;91335.41;5014057;28;20037;-62
2022/05/09 03:19:43;;;;;;;2.28;2.08;;;;;;;4.08;100.00;91339.31;5014222;28;20080;-62
2022/05/09 03:22:09;;;;;;;2.28;2.08;;;;;;;4.00;100.00;91331.94;5014337;28;20037;-62
2022/05/09 03:24:35;;;;;;;4.95;2.33;;;;;;;3.92;100.00;91334.00;5014037;28;20430;-62
2022/05/09 03:27:03;;;;;;;2.45;2.28;;;;;;;3.91;100.00;91335.03;5013702;28;20029;-64
2022/05/09 03:29:29;;;;;;;2.67;2.47;;;;;;;3.90;100.00;91341.34;5013857;28;20404;-63
2022/05/09 03:31:55;;;;;;;5.38;2.33;;;;;;;3.90;100.00;91338.72;5013769;28;20494;-62
2022/05/09 03:34:20;;;;;;;2.10;1.90;;;;;;;3.92;100.00;91339.25;5013058;28;20026;-63
2022/05/09 03:36:46;;;;;;;2.13;1.90;;;;;;;4.06;100.00;91344.03;5013898;28;20058;-62
2022/05/09 03:39:12;;;;;;;2.50;2.10;;;;;;;4.05;100.00;91337.19;5013845;28;20026;-62
2022/05/09 03:41:37;;;;;;;1.73;1.63;;;;;;;4.27;100.00;91347.53;5014051;28;20018;-62
2022/05/09 03:44:04;;;;;;;2.38;2.05;;;;;;;4.44;100.00;91354.16;5014853;28;20029;-62
2022/05/09 03:46:29;;;;;;;2.08;1.98;;;;;;;4.57;100.00;91365.22;5013823;28;20030;-62
2022/05/09 03:48:55;;;;;;;1.85;1.75;;;;;;;4.38;100.00;91344.66;5013478;28;20053;-62
2022/05/09 03:51:20;;;;;;;3.45;2.55;;;;;;;4.43;100.00;91349.94;5013213;28;20049;-62
2022/05/09 03:53:46;;;;;;;3.78;2.50;;;;;;;4.41;100.00;91354.66;5013519;28;20033;-62
2022/05/09 03:56:12;;;;;;;3.13;2.65;;;;;;;4.37;100.00;91358.88;5013290;28;20480;-63
2022/05/09 03:58:38;;;;;;;3.65;2.58;;;;;;;4.39;100.00;91359.41;5007020;28;20056;-63
2022/05/09 04:01:05;;;;;;;4.60;2.38;;;;;;;4.59;100.00;91361.31;5013111;28;20496;-63
2022/05/09 04:03:31;;;;;;;2.40;2.20;;;;;;;4.79;100.00;91363.97;5013343;28;20041;-63
2022/05/09 04:05:57;;;;;;;2.10;1.90;;;;;;;4.91;100.00;91363.72;5013124;28;20034;-63
2022/05/09 04:08:23;;;;;;;1.67;1.58;;;;;;;5.17;100.00;91363.69;5013013;28;20029;-64
2022/05/09 04:10:52;;;;;;;4.30;1.98;;;;;;;5.34;100.00;91361.56;5013061;28;20519;-63
2022/05/09 04:13:18;;;;;;;1.67;1.58;;;;;;;5.51;100.00;91361.28;5013255;28;20500;-65
2022/05/09 04:18:32;;;;;;;3.30;2.10;;;;;;;6.01;100.00;91365.69;5013375;28;20113;-64
2022/05/09 04:20:58;;;;;;;2.00;1.90;;;;;;;6.17;100.00;91366.41;5013288;28;20117;-64
2022/05/09 04:23:23;;;;;;;2.38;2.13;;;;;;;6.23;100.00;91360.81;5012981;28;20120;-64
2022/05/09 04:25:49;;;;;;;1.98;1.83;;;;;;;6.36;100.00;91369.22;5013279;28;20036;-64
2022/05/09 04:28:20;;;;;;;5.55;2.22;;;;;;;6.54;99.14;91361.47;5013050;28;20508;-64
2022/05/09 04:30:46;;;;;;;2.83;2.53;;;;;;;6.74;96.67;91365.03;5013010;28;20037;-64
2022/05/09 04:33:12;;;;;;;1.90;1.70;;;;;;;6.92;94.00;91356.44;5012873;28;20029;-64
2022/05/09 04:35:39;;;;;;;2.83;1.90;;;;;;;6.99;91.79;91366.75;5013053;28;20026;-63
2022/05/09 04:38:05;;;;;;;2.85;2.28;;;;;;;7.11;90.88;91344.16;5012604;28;20033;-63
2022/05/09 04:40:33;;;;;;;1.83;1.70;;;;;;;7.33;90.60;91362.22;5012473;28;20030;-65
2022/05/09 04:42:59;;;;;;;2.85;1.90;;;;;;;7.55;88.29;91369.69;5012668;28;20037;-64
2022/05/09 04:45:28;;;;;;;2.38;2.17;;;;;;;7.72;89.70;91356.03;5012647;28;20064;-64
2022/05/09 04:47:53;;;;;;;3.15;2.10;;;;;;;7.85;91.48;91362.53;5012837;28;20092;-64
2022/05/09 04:50:21;;;;;;;2.25;2.03;;;;;;;7.85;91.97;91347.44;5012322;28;20467;-64
2022/05/09 04:52:48;;;;;;;5.07;2.72;;;;;;;7.95;93.24;91363.22;5012575;28;20089;-65
2022/05/09 04:55:15;;;;;;;10.15;2.60;;;;;;;7.89;97.90;91364.34;5012508;28;20097;-64
2022/05/09 04:57:42;;;;;;;3.08;2.83;;;;;;;8.02;96.67;91363.66;5012581;28;20092;-65
2022/05/09 05:00:11;;;;;;;2.80;2.20;;;;;;;8.04;96.59;91350.13;5012656;28;20436;-65
2022/05/09 05:02:37;;;;;;;6.90;2.53;;;;;;;8.07;96.21;91362.84;5012388;28;20420;-65
2022/05/09 05:05:04;;;;;;;4.43;2.83;;;;;;;8.50;93.62;91354.91;5012531;28;20550;-65
2022/05/09 05:07:29;;;;;;;3.72;2.78;;;;;;;8.86;91.04;91358.69;5012123;28;20483;-64
2022/05/09 05:09:55;;;;;;;3.75;3.05;;;;;;;9.15;89.14;91363.84;5012011;28;20072;-64
2022/05/09 05:12:20;;;;;;;3.40;2.05;;;;;;;10.36;83.27;91360.16;5011979;28;20030;-64
2022/05/09 05:14:46;;;;;;;4.88;3.10;;;;;;;13.05;70.92;91362.66;5012154;28;20030;-64
2022/05/09 05:17:11;;;;;;;5.35;3.13;;;;;;;15.58;59.16;91360.44;5011995;28;20034;-64
2022/05/09 05:19:42;;;;;;;3.22;2.55;;;;;;;16.82;52.06;91358.59;5011943;28;20030;-64
2022/05/09 05:22:10;;;;;;;3.50;2.67;;;;;;;17.29;49.77;91360.81;5011878;28;20033;-64
2022/05/09 05:24:37;;;;;;;6.03;3.58;;;;;;;18.31;49.26;91356.03;5010579;28;20072;-65
2022/05/09 05:27:04;;;;;;;4.38;3.42;;;;;;;18.81;47.36;91358.88;5011812;28;20088;-65
2022/05/09 05:29:30;;;;;;;6.22;2.60;;;;;;;19.16;46.33;91358.16;5011692;28;20034;-65
2022/05/09 05:31:55;;;;;;;5.90;2.92;;;;;;;20.04;44.67;91355.84;5011638;28;20026;-63
2022/05/09 05:34:21;;;;;;;5.28;2.70;;;;;;;20.59;43.40;91361.94;5011775;28;20032;-65
2022/05/09 05:36:48;;;;;;;3.40;2.60;;;;;;;21.17;42.09;91349.00;5011742;28;20492;-63
2022/05/09 05:39:15;;;;;;;4.75;2.97;;;;;;;22.40;40.47;91356.50;5011775;28;20472;-63
2022/05/09 05:41:44;;;;;;;4.30;2.80;;;;;;;22.53;39.75;91357.03;5011718;28;20042;-63
2022/05/09 05:44:11;;;;;;;4.35;2.70;;;;;;;22.69;39.51;91354.09;5011406;28;20109;-63
2022/05/09 05:46:41;;;;;;;5.03;3.05;;;;;;;22.81;39.15;91353.81;5011707;28;20037;-64
2022/05/09 05:49:07;;;;;;;5.78;3.38;;;;;;;22.63;38.57;91358.28;5011184;28;20409;-64
2022/05/09 05:51:32;;;;;;;8.52;2.30;;;;;;;21.69;39.51;91352.88;5011179;28;20022;-63
2022/05/09 05:53:58;;;;;;;2.47;2.25;;;;;;;22.59;39.02;91357.47;5011513;28;20034;-64
2022/05/09 05:56:25;;;;;;;10.48;3.35;;;;;;;23.78;37.03;91369.78;5011456;28;20511;-64
2022/05/09 05:58:50;;;;;;;7.40;3.17;;;;;;;22.82;37.93;91371.69;5010963;28;20058;-63
2022/05/09 06:01:16;;;;;;;13.75;5.78;;;;;;;21.23;39.53;91374.59;5011245;28;20065;-64
2022/05/09 06:03:42;;;;;;;12.10;5.68;;;;;;;22.32;37.81;91368.41;5011639;28;20030;-64
2022/05/09 06:06:07;;;;;;;16.92;6.95;;;;;;;22.82;37.48;91376.31;5011351;28;20041;-63
2022/05/09 06:08:37;;;;;;;6.95;3.85;;;;;;;22.69;37.07;91373.06;5011452;28;20032;-63
2022/05/09 06:11:07;;;;;;;6.18;3.50;;;;;;;23.03;36.21;91379.25;5011169;28;20068;-69
2022/05/09 06:13:34;;;;;;;10.23;4.25;;;;;;;23.76;34.66;91374.03;5011388;28;20117;-67
2022/05/09 06:15:59;;;;;;;5.30;2.78;;;;;;;24.59;34.52;91376.78;5013064;28;20053;-69
2022/05/09 06:18:25;;;;;;;15.80;3.03;;;;;;;24.40;34.24;91377.13;5011435;28;20034;-69
2022/05/09 06:20:51;;;;;;;7.88;3.40;;;;;;;26.42;31.75;91376.47;5011191;28;20536;-68
2022/05/09 06:23:17;;;;;;;6.75;3.55;;;;;;;26.54;31.31;91378.78;5022507;28;20028;-66
2022/05/09 06:25:46;;;;;;;3.78;2.58;;;;;;;27.96;31.21;91379.84;5030774;28;20499;-65
2022/05/09 06:28:15;;;;;;;6.78;3.20;;;;;;;26.86;31.92;91383.31;5030318;28;20056;-66
2022/05/09 06:30:41;;;;;;;6.30;3.72;;;;;;;27.79;31.49;91380.00;5030639;28;20052;-65
2022/05/09 06:33:07;;;;;;;8.88;3.92;;;;;;;27.92;31.24;91386.50;5030303;28;20033;-64
2022/05/09 06:35:33;;;;;;;7.07;3.53;;;;;;;26.03;32.30;91376.53;5030526;28;20030;-63
2022/05/09 06:38:05;;;;;;;9.13;4.10;;;;;;;25.80;33.34;91379.72;5030885;28;20242;-65
2022/05/09 06:40:32;;;;;;;12.18;4.53;;;;;;;25.49;33.10;91381.25;5030550;28;20030;-65
2022/05/09 06:42:58;;;;;;;9.00;5.13;;;;;;;25.89;33.11;91377.38;5030055;28;20033;-65
2022/05/09 06:45:25;;;;;;;8.93;4.70;;;;;;;28.16;31.16;91382.00;5030425;28;20086;-65
2022/05/09 06:47:53;;;;;;;14.63;6.07;;;;;;;27.07;31.70;91366.81;5030321;28;20037;-64
2022/05/09 06:50:21;;;;;;;19.77;6.47;;;;;;;27.73;31.91;91380.41;5030024;28;20046;-64
2022/05/09 06:52:46;;;;;;;14.90;5.63;;;;;;;29.08;30.59;91378.22;5030441;28;20025;-65
2022/05/09 06:55:13;;;;;;;11.68;5.00;;;;;;;29.15;29.79;91380.06;5030516;28;20108;-64
2022/05/09 06:57:40;;;;;;;10.50;3.22;;;;;;;29.16;29.18;91381.63;5030259;28;20056;-63
2022/05/09 07:00:09;;;;;;;14.57;3.03;;;;;;;29.55;28.69;91372.09;5029980;28;20034;-63
2022/05/09 07:02:35;;;;;;;4.82;2.40;;;;;;;28.97;29.46;91377.59;5030356;28;20570;-64
2022/05/09 07:05:09;;;;;;;8.55;3.47;;;;;;;28.75;29.29;91376.28;5030219;28;20091;-64
2022/05/09 07:07:35;;;;;;;2.85;1.80;;;;;;;27.67;30.93;91382.03;5030358;28;20137;-64
2022/05/09 07:10:01;;;;;;;5.20;2.25;;;;;;;28.38;30.69;91369.66;5031681;28;20108;-63
2022/05/09 07:12:26;;;;;;;2.85;2.30;;;;;;;27.89;31.23;91376.38;5033887;28;20075;-63
2022/05/09 07:14:52;;;;;;;3.80;2.38;;;;;;;27.57;31.34;91371.16;5033468;28;20473;-64
2022/05/09 07:17:17;;;;;;;6.07;2.67;;;;;;;25.22;34.05;91367.22;5033884;28;20083;-64
2022/05/09 07:19:44;;;;;;;4.70;2.40;;;;;;;26.94;33.02;91376.63;5033683;28;20492;-66
2022/05/09 07:22:10;;;;;;;2.67;2.13;;;;;;;27.49;31.43;91372.41;5033651;28;20037;-66
2022/05/09 07:24:35;;;;;;;4.95;2.70;;;;;;;29.38;30.10;91371.16;5033808;28;20051;-64
2022/05/09 07:27:01;;;;;;;7.55;2.50;;;;;;;29.21;30.76;91365.50;5033761;28;20112;-64
2022/05/09 07:29:26;;;;;;;5.38;2.92;;;;;;;29.29;30.84;91368.91;5033280;28;20030;-65
2022/05/09 07:31:52;;;;;;;4.95;2.33;;;;;;;27.90;31.93;91372.47;5033599;28;20025;-64
2022/05/09 07:34:18;;;;;;;2.45;2.25;;;;;;;27.45;32.26;91364.22;5033514;28;20384;-64
2022/05/09 07:36:43;;;;;;;4.38;2.40;;;;;;;26.24;33.92;91359.38;5033384;28;20029;-63
2022/05/09 07:39:09;;;;;;;3.10;1.90;;;;;;;25.45;34.83;91357.91;5033144;28;20060;-64
2022/05/09 07:41:34;;;;;;;3.65;2.15;;;;;;;26.42;34.88;91346.47;5033271;28;20036;-65
2022/05/09 07:44:00;;;;;;;2.70;2.40;;;;;;;28.13;32.14;91356.22;5032942;28;20124;-65
2022/05/09 07:46:26;;;;;;;4.57;2.63;;;;;;;28.15;33.78;91353.84;5033292;28;20509;-64
2022/05/09 07:48:52;;;;;;;4.60;2.88;;;;;;;28.10;32.00;91359.78;5033000;28;20511;-66
2022/05/09 07:51:18;;;;;;;5.28;2.30;;;;;;;27.42;32.05;91354.09;5033006;28;20112;-71
2022/05/09 07:53:44;;;;;;;3.22;2.40;;;;;;;26.56;33.02;91370.97;5033070;28;20029;-72
2022/05/09 07:56:10;;;;;;;7.03;2.63;;;;;;;26.68;34.35;91358.06;5033217;28;20632;-71
2022/05/09 07:58:35;;;;;;;5.57;2.70;;;;;;;26.97;34.34;91362.16;5032311;28;20064;-73
2022/05/09 08:01:02;;;;;;;2.42;1.92;;;;;;;30.61;29.38;91356.53;5033002;28;20408;-73
2022/05/09 08:03:31;;;;;;;4.03;2.40;;;;;;;31.24;28.01;91369.41;5032927;28;20029;-70
2022/05/09 08:06:02;;;;;;;4.97;2.67;;;;;;;31.84;26.55;91365.28;5032939;28;20164;-69
2022/05/09 08:08:29;;;;;;;3.45;1.73;;;;;;;30.44;28.36;91367.84;5032922;28;20025;-69
2022/05/09 08:10:57;;;;;;;3.17;1.90;;;;;;;29.19;29.01;91365.16;5032673;28;20033;-68
2022/05/09 08:13:25;;;;;;;2.50;2.10;;;;;;;30.74;26.73;91358.66;5032619;28;20037;-68
2022/05/09 08:15:51;;;;;;;6.80;2.42;;;;;;;31.04;26.26;91357.63;5032789;28;20095;-67
2022/05/09 08:18:18;;;;;;;4.38;2.63;;;;;;;30.54;26.33;91362.16;5032701;28;20515;-72
2022/05/09 08:20:45;;;;;;;4.18;2.35;;;;;;;28.48;30.12;91362.53;5032149;28;20036;-67
2022/05/09 08:23:13;;;;;;;5.10;3.00;;;;;;;27.04;31.07;91361.38;5032861;28;20095;-67
2022/05/09 08:25:42;;;;;;;5.70;1.98;;;;;;;29.55;28.83;91361.91;5032444;28;20295;-68
2022/05/09 08:28:08;;;;;;;5.07;2.17;;;;;;;26.45;31.37;91359.31;5032078;28;20038;-68
2022/05/09 08:30:35;;;;;;;4.45;2.30;;;;;;;27.19;31.42;91362.06;5032424;28;20076;-67
2022/05/09 08:33:02;;;;;;;7.88;2.88;;;;;;;29.54;29.30;91371.31;5032302;28;20569;-69
2022/05/09 08:35:28;;;;;;;40.63;5.45;;;;;;;26.25;31.37;91361.69;5032266;28;20026;-68
2022/05/09 08:37:54;;;;;;;8.13;2.13;;;;;;;26.41;31.16;91361.28;5032272;28;20087;-67
2022/05/09 08:40:32;;;;;;;2.88;2.00;;;;;;;25.29;32.29;91347.41;5032412;28;20057;-68
2022/05/09 08:43:23;;;;;;;3.88;2.00;;;;;;;24.76;32.28;91350.78;5031799;28;20037;-68
2022/05/09 08:45:58;;;;;;;8.20;2.80;;;;;;;24.63;33.02;91355.06;5032195;28;20527;-67
2022/05/09 08:48:45;;;;;;;2.42;2.00;;;;;;;25.18;32.73;91344.66;5031902;28;20034;-69
2022/05/09 08:51:37;;;;;;;7.43;2.47;;;;;;;25.84;32.30;91353.22;5031793;28;20087;-67
2022/05/09 08:54:08;;;;;;;2.83;2.30;;;;;;;28.44;30.47;91356.31;5031964;28;20033;-68
2022/05/09 08:56:34;;;;;;;2.45;1.90;;;;;;;30.53;26.83;91357.09;5031571;28;20108;-67
2022/05/09 08:59:12;;;;;;;5.38;2.28;;;;;;;28.41;28.60;91346.97;5031643;28;20466;-69
2022/05/09 09:01:51;;;;;;;3.38;2.38;;;;;;;27.01;30.52;91364.94;5031765;28;20458;-68
2022/05/09 09:04:22;;;;;;;4.50;1.80;;;;;;;27.54;29.72;91361.81;5031890;28;20028;-68
2022/05/09 09:06:50;;;;;;;3.08;2.28;;;;;;;25.61;31.80;91358.28;5031813;28;20025;-69
2022/05/09 09:09:48;;;;;;;9.05;2.00;;;;;;;24.57;33.99;91348.41;5031742;28;20472;-68
2022/05/09 09:12:22;;;;;;;13.23;2.60;;;;;;;24.01;35.75;91353.22;5031204;28;20025;-68
2022/05/09 09:15:05;;;;;;;12.18;3.53;;;;;;;23.14;36.15;91354.91;5031650;28;20094;-68
2022/05/09 09:17:32;;;;;;;;;;;;;;;25.59;34.49;91349.72;5031884;28;20025;-68
2022/05/09 09:20:16;;;;;;;2.75;2.08;;;;;;;27.29;32.68;91353.00;5031566;28;19916;-69
2022/05/09 09:22:47;;;;;;;3.65;2.00;;;;;;;25.72;33.67;91353.66;5031422;28;20033;-69
2022/05/09 09:25:12;;;;;;;3.78;1.90;;;;;;;26.14;33.48;91354.72;5031389;28;20026;-69
2022/05/09 09:27:44;;;;;;;7.43;2.22;;;;;;;25.90;32.50;91340.75;5031007;28;20447;-67
2022/05/09 09:30:15;;;;;;;1.90;1.70;;;;;;;25.77;32.56;91352.47;5030676;28;20099;-68
2022/05/09 09:32:50;;;;;;;4.82;2.42;;;;;;;27.92;30.63;91340.00;5030750;28;20119;-68
2022/05/09 09:35:31;;;;;;;11.65;2.30;;;;;;;29.21;28.74;91348.31;5031446;28;20076;-68
2022/05/09 09:38:17;;;;;;;4.82;2.33;;;;;;;27.75;29.41;91349.94;5031388;28;20025;-68
2022/05/09 09:40:42;;;;;;;2.45;2.03;;;;;;;24.40;33.03;91345.25;5031114;28;20030;-63
2022/05/09 09:43:08;;;;;;;3.47;2.05;;;;;;;25.63;32.25;91331.41;5031167;28;20403;-63
2022/05/09 09:45:49;;;;;;;2.03;1.60;;;;;;;28.68;28.91;91341.53;5031374;28;20032;-63
2022/05/09 09:48:20;;;;;;;1.60;1.50;;;;;;;29.41;27.83;91346.41;5030950;28;20112;-63
2022/05/09 09:51:09;;;;;;;7.22;2.20;;;;;;;30.81;27.03;91340.06;5030763;28;20132;-63
2022/05/09 09:53:38;;;;;;;3.13;1.85;;;;;;;31.17;26.07;91345.56;5030914;28;20420;-65
2022/05/09 09:56:22;;;;;;;2.25;1.83;;;;;;;31.63;25.67;91338.25;5030673;28;20053;-64
2022/05/09 09:58:50;;;;;;;2.45;1.73;;;;;;;30.06;27.56;91336.00;5030738;28;20041;-64
2022/05/09 10:01:24;;;;;;;2.80;1.67;;;;;;;32.45;25.42;91336.22;5030808;28;20029;-64
2022/05/09 10:04:13;;;;;;;1.67;1.40;;;;;;;32.71;23.97;91331.59;5030978;28;20029;-64
2022/05/09 10:07:30;;;;;;;8.30;1.80;;;;;;;31.50;24.29;91340.16;5030875;28;20026;-65
2022/05/09 10:10:16;;;;;;;5.70;2.10;;;;;;;29.97;25.09;91329.47;5008818;28;20116;-64
2022/05/09 10:12:48;;;;;;;3.08;1.48;;;;;;;31.05;23.44;91335.22;5008503;28;20038;-66
2022/05/09 10:15:26;;;;;;;2.00;1.40;;;;;;;31.87;22.51;91339.66;5025125;28;20500;-66
2022/05/09 10:17:52;;;;;;;1.58;1.35;;;;;;;30.75;21.60;91347.25;5030764;28;20256;-65
2022/05/09 10:20:39;;;;;;;1.30;1.20;;;;;;;29.66;22.01;91339.78;5030688;28;20563;-64
2022/05/09 10:26:19;;;;;;;1.88;1.30;;;;;;;29.12;24.04;91324.16;5030592;28;20474;-65
2022/05/09 10:28:49;;;;;;;1.42;1.33;;;;;;;31.20;22.60;91336.50;5030634;28;20199;-65
2022/05/09 10:31:29;;;;;;;4.38;1.70;;;;;;;33.41;21.28;91338.25;5030896;28;20105;-65
2022/05/09 10:34:00;;;;;;;6.97;2.08;;;;;;;33.75;21.17;91337.56;5030811;28;20029;-68
2022/05/09 10:36:41;;;;;;;2.30;1.60;;;;;;;33.12;21.38;91333.56;5030837;28;20030;-65
2022/05/09 10:39:14;;;;;;;3.47;2.45;;;;;;;30.41;22.42;91331.78;5030462;28;20105;-65
2022/05/09 10:41:49;;;;;;;5.82;1.50;;;;;;;30.45;21.83;91323.47;5029974;28;20033;-65
2022/05/09 10:44:27;;;;;;;3.35;1.80;;;;;;;28.53;23.73;91326.47;5032534;28;20033;-65
2022/05/09 10:46:59;;;;;;;5.97;2.15;;;;;;;30.29;22.56;91328.91;5034465;28;20033;-65
2022/05/09 10:49:45;;;;;;;1.10;1.00;;;;;;;30.15;22.29;91332.72;5034026;28;20041;-65
2022/05/09 10:52:27;;;;;;;1.70;1.13;;;;;;;30.84;21.91;91322.72;5033892;28;20057;-65
2022/05/09 10:55:01;;;;;;;1.00;1.00;;;;;;;30.92;21.27;91334.34;5034138;28;20033;-66
2022/05/09 10:57:44;;;;;;;4.00;1.50;;;;;;;30.28;21.09;91316.38;5033671;28;20025;-66
2022/05/09 11:00:22;;;;;;;1.50;1.40;;;;;;;28.73;25.10;91312.94;5034045;28;20522;-66
2022/05/09 11:03:03;;;;;;;1.52;1.20;;;;;;;30.19;21.05;91319.69;5034012;28;20272;-66
2022/05/09 11:05:39;;;;;;;3.58;1.40;;;;;;;29.23;21.67;91313.81;5034107;28;20037;-65
2022/05/09 11:08:19;;;;;;;1.58;1.23;;;;;;;31.27;21.10;91313.59;5034101;28;20046;-65
2022/05/09 11:10:57;;;;;;;1.40;1.20;;;;;;;30.80;21.35;91318.53;5033383;28;20064;-66
2022/05/09 11:13:40;;;;;;;2.03;1.20;;;;;;;29.88;21.61;91310.81;5034044;28;20058;-67
2022/05/09 11:16:25;;;;;;;1.17;1.05;;;;;;;29.59;23.05;91315.22;5033920;28;20052;-67
2022/05/09 11:19:12;;;;;;;2.20;1.35;;;;;;;28.30;23.14;91318.94;5033841;28;20041;-66
2022/05/09 11:21:38;;;;;;;6.38;2.03;;;;;;;27.65;22.92;91309.81;5033707;28;20563;-66
2022/05/09 11:24:20;;;;;;;1.75;1.20;;;;;;;26.80;24.34;91306.50;5033836;28;20113;-64
2022/05/09 11:27:19;;;;;;;1.50;1.20;;;;;;;27.26;25.46;91312.84;5033254;28;20038;-65
2022/05/09 11:30:01;;;;;;;1.38;1.27;;;;;;;27.67;25.24;91305.50;5033570;28;20087;-65
2022/05/09 11:32:29;;;;;;;1.27;1.13;;;;;;;28.29;25.42;91303.72;5033627;28;20033;-65
2022/05/09 11:35:11;;;;;;;1.98;1.65;;;;;;;26.29;26.57;91312.56;5033614;28;20121;-64
2022/05/09 11:38:12;;;;;;;1.50;1.40;;;;;;;26.10;27.35;91307.59;5033581;28;20183;-64
2022/05/09 11:40:53;;;;;;;3.30;1.40;;;;;;;26.40;27.69;91302.44;5011115;28;20057;-64
2022/05/09 11:43:37;;;;;;;3.17;1.77;;;;;;;27.75;27.71;91306.19;5031056;28;20042;-65
2022/05/09 11:46:23;;;;;;;2.42;1.80;;;;;;;28.58;27.39;91307.66;5033556;28;20045;-64
2022/05/09 11:49:00;;;;;;;3.15;2.20;;;;;;;28.13;29.22;91304.25;5033014;28;20051;-65
2022/05/09 11:51:34;;;;;;;2.05;1.40;;;;;;;28.69;29.49;91299.28;5033100;28;20499;-65
2022/05/09 11:54:07;;;;;;;2.38;1.90;;;;;;;29.43;29.23;91296.66;5033379;28;20037;-65
2022/05/09 11:56:33;;;;;;;;;;;;;;;30.15;26.95;91299.00;5032575;28;20037;-65